Aérodrome :
LOGIN :

S'inscrire | Disclaimer

   EN    FR    IT 

 










Légende :    VFR   VFR Marginal   IFR   IFR Intensif   IFR Très Intensif
Visi : 
Plafond : 
>= 8 km
>= 3000ft
5 à 8 km
1000 à 3000 ft
1500m à 5 km
500 à 1000 ft
800 à 1500m
200 à 500 ft
< 800m
< 200 ft
Symboles :   Orages  Brouillard  Fortes neiges  Fortes précipitations  Vent > 20 kt
SIGMETs :   Divers  Orages  Givrage  Turbulence  Onde Orograph.  Cendres Volcan.







- Altitude de l'aérodrome : 424 ft
- Code IATA : QGY


LHPR - Györ Per

DERNIER METAR :
  • 161645Z AUTO 30010KT CAVOK 27/17 Q1019 RMK BLU

METARs EXPIRÉS :
  • 161615Z AUTO 31012KT CAVOK 26/17 Q1019 RMK BLU
  • 161545Z 32017KT 9999 VCTS SCT050 FEW056TCU BKN200 26/17 Q1019 RMK BLU
  • 161515Z 31006KT 260V360 9999 SCT060 FEW066TCU 30/15 Q1019 RMK BLU
  • 161445Z VRB04KT 9999 SCT066 FEW070CB 30/15 Q1018 RMK BLU
  • 161415Z 29006KT 220V010 9999 SCT066 FEW070TCU 30/15 Q1019 RMK BLU

TAF TAF LHPR
Valide du 16 à 15h jusqu'au 17 à 00h UTC


161415Z 1615/1624 30010KT CAVOK
PROB30
TEMPO 1615/1618 VRB20G30KT -TSRA SCT040CB BKN080
Pas de NOTAMs connus pour ce terrain.



MET'MAP, la Météo Aéronautique d'un coup d'oeil ! - Copyright ORBIFLY Décembre 2007 - Disclaimer

ORBIFLY MET'MAP TEAM :

Programmation & Développement : Alexandra Zaïnal
Conception & Développement : Baudouin d'Aumeries
Co-Programmation & Développement : Marc-Olivier Méhu
Soutien technique & logistique : Manuel Goepfert

Contact : metmap@orbifly.com




SOURCES & CREDITS :

   NOAA